Aviation Digital Data Service (ADDS)

Output produced by METARs form (0638 UTC 27 March 2017)
found at http://www.aviationweather.gov/adds/metars/
 
EGAA 270620Z 08009KT CAVOK 05/04 Q1023
TAF EGAA 270453Z 2706/2806 09008KT 9999 FEW025 
     PROB30 2706/2709 9000 BKN010 
     PROB40 2803/2806 7000 BKN005
       
EGPL 270620Z VRB02KT 9999 FEW003 06/06 Q1025
EGUB 270550Z 03005KT 2000 BR OVC003 05/05 Q1023 YLO2 TEMPO OVC002 AMB
TAF AMD EGUB 270541Z 2706/2715 06005KT 3000 BR BKN004 
     PROB30 2706/2708 2000 BKN002 
     BECMG 2708/2711 9999 NSW FEW010
       
EGKB 270620Z 06009KT 0350 R21/0500 FG VV/// 06/06 Q1022
EGBB 270620Z 08008KT 050V130 3600 BR OVC004 04/04 Q1023
TAF AMD EGBB 270608Z 2706/2806 07009KT 3000 BR BKN004 
     BECMG 2706/2709 8000 NSW BKN006 
     BECMG 2709/2712 9999 FEW030 
     BECMG 2721/2724 8000 BKN004 
     PROB30 2802/2806 0300 FG BKN001
       
EGNH 270620Z 08011KT CAVOK 04/03 Q1024
TAF EGNH 270613Z 2706/2715 09009KT 9999 FEW040
       
EGDM 270550Z 06008KT 2500 BR BKN003 05/04 Q1021 YLO2
TAF EGDM 270615Z 2707/2715 07008KT 2500 BR BKN003 
     BECMG 2707/2709 9999 NSW FEW025
       
EGHH 270620Z 02005KT 4500 BR NSC 05/04 Q1021
TAF EGHH 270525Z 2706/2715 04006KT 9999 FEW045 
     TEMPO 2706/2709 3000 BR BKN004
       
EGGD 270620Z AUTO 06014KT 4300 HZ FEW003 03/03 Q1021
TAF AMD EGGD 270502Z 2705/2724 06010KT CAVOK 
     BECMG 2705/2708 7000 BKN006 
     PROB30 2705/2708 3000 BR BKN002 
     BECMG 2708/2711 9999 FEW015 SCT035 
     BECMG 2716/2719 13006KT
       
EGVN 270627Z 07010KT 1200 0500S BCFG BR OVC002 05/04 Q1023 RED BECMG 5000 HZ SCT014 GRN
TAF AMD EGVN 270534Z 2706/2806 07008KT 1000 BR OVC002 
     BECMG 2706/2709 5000 HZ SCT014 
     BECMG 2709/2711 9999 NSW FEW030 
     PROB40 2802/2806 0600 FG OVC001
       
EGAA 270620Z 08009KT CAVOK 05/04 Q1023
TAF EGAA 270453Z 2706/2806 09008KT 9999 FEW025 
     PROB30 2706/2709 9000 BKN010 
     PROB40 2803/2806 7000 BKN005
       
EGAC 270620Z VRB03KT 9999 FEW011 06/05 Q1024
TAF EGAC 270557Z 2706/2715 08006KT 9999 FEW025
       
EGBB 270620Z 08008KT 050V130 3600 BR OVC004 04/04 Q1023
TAF AMD EGBB 270608Z 2706/2806 07009KT 3000 BR BKN004 
     BECMG 2706/2709 8000 NSW BKN006 
     BECMG 2709/2712 9999 FEW030 
     BECMG 2721/2724 8000 BKN004 
     PROB30 2802/2806 0300 FG BKN001
       
EGBJ 270620Z 11002KT 4000 BR FEW005 OVC008 06/04 Q1023
TAF EGBJ 270627Z 2706/2715 06007KT 4000 BR FEW004 BKN008 
     TEMPO 2706/2709 BKN004 
     BECMG 2709/2712 9999 NSW FEW045
       
EGCC 270620Z AUTO 05004KT 9999 NCD 04/02 Q1024 NOSIG
TAF EGCC 270500Z 2706/2812 08006KT 9999 FEW045 
     PROB30 
     TEMPO 2706/2709 9000 BKN010 
     BECMG 2712/2715 14010KT 
     TEMPO 2721/2809 8000 
     PROB30 
     TEMPO 2803/2809 4000 BR BKN008 
     BECMG 2809/2812 20010KT
       
EGCN 270620Z VRB03KT 9999 BKN016 07/04 Q1026
TAF EGCN 270531Z 2706/2806 07006KT 9999 BKN016 
     TEMPO 2706/2711 7000 BKN009 
     TEMPO 2717/2724 6000 BKN008 
     BECMG 2800/2803 BKN009 
     TEMPO 2803/2806 4000 BR BKN003
       
EGDM 270550Z 06008KT 2500 BR BKN003 05/04 Q1021 YLO2
TAF EGDM 270615Z 2707/2715 07008KT 2500 BR BKN003 
     BECMG 2707/2709 9999 NSW FEW025
       
EGDR 270550Z 07015G26KT 3000 BR FEW002 SCT003 BKN005 09/08 Q1018 YLO2
EGDX 270550Z AUTO 06010KT 9999 FEW190/// 06/03 Q1021
TAF EGDX 270439Z 2706/2715 08010KT 9999 FEW020
       
EGDY 270550Z 04005KT 9000 HZ BKN190 04/03 Q1021 BLU
EGFF 270620Z AUTO 07010KT 9999 NCD 05/04 Q1021
TAF EGFF 270500Z 2706/2806 07013KT 9999 FEW045
       
EGGD 270620Z AUTO 06014KT 4300 HZ FEW003 03/03 Q1021
TAF AMD EGGD 270502Z 2705/2724 06010KT CAVOK 
     BECMG 2705/2708 7000 BKN006 
     PROB30 2705/2708 3000 BR BKN002 
     BECMG 2708/2711 9999 FEW015 SCT035 
     BECMG 2716/2719 13006KT
       
EGGP 270620Z 11005KT 8000 NSC 03/03 Q1024
TAF AMD EGGP 270608Z 2706/2806 09008KT 9999 FEW045 
     TEMPO 2706/2709 9000 
     BECMG 2709/2712 15010KT 
     PROB30 
     TEMPO 2803/2806 8000 BKN008
       
EGGW 270620Z AUTO 05008KT 0350 R08/0800 FG VV/// 05/05 Q1023
TAF EGGW 270500Z 2706/2806 07008KT 0200 FG OVC000 
     BECMG 2706/2709 3000 BR BKN003 
     BECMG 2709/2711 9999 NSW FEW020 
     BECMG 2722/2724 7000 
     BECMG 2800/2803 4000 BR
       
EGHC 270620Z 10016KT 6000 FEW007 07/06 Q1017
EGHE 270620Z 10022KT 6000 NSC 10/09 Q1017
TAF EGHE 270627Z 2706/2715 10022KT 6000 FEW045 
     BECMG 2709/2712 9999 
     TEMPO 2712/2715 9000
       
EGHH 270620Z 02005KT 4500 BR NSC 05/04 Q1021
TAF EGHH 270525Z 2706/2715 04006KT 9999 FEW045 
     TEMPO 2706/2709 3000 BR BKN004
       
EGHI 270620Z 03004KT 4000 BR SCT003 05/04 Q1022
TAF EGHI 270525Z 2706/2715 04006KT 9999 FEW045 
     TEMPO 2706/2709 3000 BR BKN004
       
EGHQ 270620Z 09013KT 9000 NSC 07/05 Q1019
TAF EGHQ 270627Z 2706/2715 11012KT 8000 FEW045 
     BECMG 2707/2710 9999
       
EGJA 270620Z 07009KT 4000 BR NSC 08/08 Q1019
TAF EGJA 270618Z 2707/2715 07009KT 3000 BR NSC 
     BECMG 2707/2709 7000 NSW 
     BECMG 2709/2911 CAVOK
       
EGJB 270620Z 07005KT 9000 NSC 08/07 Q1019
TAF EGJB 270455Z 2706/2715 08007KT CAVOK 
     PROB30 
     TEMPO 2706/2708 8000
       
EGJJ 270620Z 10010KT CAVOK 09/07 Q1019 NOSIG
TAF EGJJ 270455Z 2706/2715 08007KT CAVOK 
     PROB30 
     TEMPO 2706/2708 8000
       
EGKB 270620Z 06009KT 0350 R21/0500 FG VV/// 06/06 Q1022
EGKK 270620Z 04007KT 2200 BR OVC004 07/06 Q1022
TAF EGKK 270456Z 2706/2812 06010KT 2000 BR FEW004 
     TEMPO 2706/2709 BKN004 
     PROB30 2706/2708 0500 FG 
     BECMG 2709/2711 CAVOK 
     BECMG 2715/2718 13005KT 
     PROB40 2721/2724 8000 
     BECMG 2800/2803 7000 
     PROB30 2803/2808 4000 HZ 
     BECMG 2808/2810 22010KT 9999 FEW015 BKN030 
     PROB30 
     TEMPO 2810/2812 7000 SHRA
       
EGLC 270620Z AUTO 05007KT 3100 HZ OVC005 08/06 Q1023
TAF EGLC 270458Z 2706/2715 07006KT 3000 BR OVC004 
     BECMG 2706/2709 7000 NSW BKN007 
     BECMG 2709/2711 9999 FEW030
       
EGLF 270620Z 06007KT 2500 HZ OVC004 06/05 Q1023
TAF EGLF 270627Z 2706/2715 07006KT 2500 BR OVC004 
     BECMG 2706/2709 9999 NSW FEW030
       
EGLL 270620Z 07007KT 3600 HZ SCT005 BKN006 07/06 Q1023 BECMG 5000
TAF EGLL 270455Z 2706/2812 06007KT 3500 BR BKN004 
     TEMPO 2706/2708 6000 NSW SCT005 
     BECMG 2708/2711 CAVOK 
     PROB30 
     TEMPO 2712/2721 8000 
     BECMG 2721/2724 7000 
     PROB40 2802/2807 4000 HZ 
     BECMG 2807/2810 22010KT 9999 FEW015 BKN030 
     PROB30 
     TEMPO 2808/2811 BKN014 
     PROB30 
     TEMPO 2810/2812 7000 SHRA
       
EGMC 270620Z 03006KT 2400 BR OVC005 07/06 Q1023
TAF EGMC 270458Z 2706/2715 05006KT 2000 BR BKN003 
     BECMG 2706/2709 9999 NSW FEW012
       
EGMD 270620Z AUTO 36007KT 1600 BR NCD 04/04 Q1022
TAF EGMD 270458Z 2706/2715 04006KT 2000 BR FEW020 
     BECMG 2706/2709 9999 NSW 
     PROB30 
     TEMPO 2706/2708 BKN006
       
EGNH 270620Z 08011KT CAVOK 04/03 Q1024
TAF EGNH 270613Z 2706/2715 09009KT 9999 FEW040
       
EGNJ 270620Z VRB02KT 9999 BKN012 07/06 Q1025
TAF EGNJ 270501Z 2706/2715 07008KT 9999 BKN012 
     TEMPO 2706/2712 BKN006 
     PROB40 
     TEMPO 2706/2715 6000 BKN004 
     BECMG 2712/2715 BKN006
       
EGNM 270620Z 08005KT 030V120 9999 SCT006 BKN008 05/04 Q1024
TAF EGNM 270502Z 2706/2806 10007KT 9999 BKN012 
     TEMPO 2706/2710 3000 BR BKN004 
     PROB30 
     TEMPO 2706/2709 0300 FG OVC001 
     BECMG 2710/2713 SCT020 
     PROB30 
     TEMPO 2719/2721 BKN009 
     BECMG 2721/2724 3000 BR BKN005 
     TEMPO 2723/2806 0300 FG OVC001
       
EGNR 270620Z 17004KT 140V220 8000 NSC M00/M00 Q1025
TAF EGNR 270512Z 2706/2715 15005KT 9999 FEW045 
     PROB30 
     TEMPO 2706/2709 9000 BKN010
       
EGNS 270620Z 08012KT 8000 SCT011 06/05 Q1023 NOSIG
TAF EGNS 270500Z 2706/2715 10014KT 9999 FEW012 
     TEMPO 2706/2713 8000 BKN010
       
EGNT 270620Z 23001KT 0150 R07/0300 FG OVC001 01/01 Q1025
TAF EGNT 270449Z 2706/2806 VRB04KT 8000 FEW010 
     TEMPO 2706/2806 3000 BR BKN006 
     PROB30 
     TEMPO 2706/2710 0300 FG BKN001 
     PROB40 
     TEMPO 2720/2806 BKN004
       
EGNV 270620Z 32003KT 2500 BR FEW011 BKN013 05/04 Q1025
TAF EGNV 270527Z 2706/2715 06009KT 7000 BKN013 
     TEMPO 2706/2715 3000 BR BKN006
       
EGNX 270620Z 07008KT 7000 BKN005 04/03 Q1024
TAF EGNX 270500Z 2706/2806 09009KT 9999 BKN006 
     PROB30 
     TEMPO 2706/2709 8000 
     BECMG 2709/2712 FEW030 
     BECMG 2719/2722 8000 BKN004 
     PROB30 2800/2806 0300 FG BKN001
       
EGOM 270550Z AUTO 01004KT 6000 BR NCD 01/01 Q1024
EGOP 270550Z AUTO 08006KT 9999 // BKN200/// 06/04 Q1021
EGOS 270550Z 11007KT 6000 HZ BKN005 04/03 Q1024 YLO1
TAF EGOS 270554Z 2706/2715 10008KT 7000 HZ SCT005 
     PROB30 2706/2708 4000 BR SCT004 
     BECMG 2708/2710 9999 NSW SCT015 
     BECMG 2710/2712 FEW022
       
EGOV 270550Z 06003KT 9999 FEW030 SCT300 04/03 Q1022 BLU
TAF EGOV 270559Z 2706/2715 VRB03KT 9999 FEW012
       
EGPA 270620Z 33002KT 9999 FEW008 06/05 Q1025
TAF EGPA 270625Z 2706/2715 VRB05KT 9999 FEW025 
     TEMPO 2706/2709 7000 
     BECMG 2709/2712 07010KT 
     PROB30 
     TEMPO 2714/2715 BKN010
       
EGPB 270620Z VRB02KT 9999 FEW025 05/04 Q1025
TAF EGPB 270500Z 2706/2715 VRB03KT 9999 SCT008 
     TEMPO 2706/2715 BKN004 
     PROB40 
     TEMPO 2706/2712 6000
       
EGPC 270620Z 26002KT 9000 MIFG NSC 02/02 Q1025
TAF EGPC 270500Z 2706/2715 13005KT 0200 FG BKN001 
     BECMG 2706/2709 9999 NSW SCT009
       
EGPD 270620Z AUTO VRB01KT 9999 -RA NCD 03/01 Q1025 NOSIG
TAF EGPD 270501Z 2706/2806 VRB03KT CAVOK 
     BECMG 2711/2714 15010KT 
     TEMPO 2718/2721 BKN008 
     PROB40 
     TEMPO 2718/2724 6000 
     BECMG 2721/2724 BKN008 
     TEMPO 2800/2806 3000 DZ BKN004 
     PROB30 
     TEMPO 2800/2803 1200 BR
       
EGPE 270620Z 24003KT CAVOK 00/M00 Q1025
TAF EGPE 270500Z 2706/2715 VRB03KT CAVOK 
     TEMPO 2706/2708 2000 BR
       
EGPF 270620Z VRB03KT 9999 MIFG NSC 00/M00 Q1025
TAF EGPF 270449Z 2706/2806 05006KT 9999 FEW030 
     TEMPO 2706/2709 2000 BR 
     PROB30 
     TEMPO 2706/2709 BKN012 
     PROB30 
     TEMPO 2722/2724 BKN014
       
EGPH 270620Z 24002KT 9999 R06/1400 MIFG NSC 00/M00 Q1025
TAF EGPH 270501Z 2706/2806 06005KT CAVOK 
     PROB40 
     TEMPO 2706/2708 4000 BR MIFG BKN003 
     TEMPO 2715/2718 BKN012 
     BECMG 2718/2721 BKN008 
     TEMPO 2718/2803 4000 BR DZ BKN003 
     TEMPO 2803/2806 SCT008
       
EGPI 270620Z AUTO 15004KT 9999 NCD 06/04 Q1023
TAF EGPI 270501Z 2706/2715 13008KT CAVOK
       
EGPK 270620Z 08003KT CAVOK 04/00 Q1025
TAF EGPK 270449Z 2706/2806 VRB05KT 9999 FEW035
       
EGPL 270620Z VRB02KT 9999 FEW003 06/06 Q1025
EGPM 270620Z 28005KT 250V330 9999 SCT015 07/05 Q1025 TEMPO BKN012
TAF EGPM 270500Z 2706/2715 25006KT 9999 SCT012 
     TEMPO 2706/2715 BKN012 
     PROB40 
     TEMPO 2706/2715 2000 BR SCT002 BKN004
       
EGPN 270620Z 02001KT CAVOK 03/02 Q1025
TAF EGPN 270628Z 2706/2715 VRB05KT 9999 SCT030 
     TEMPO 2706/2708 8000 
     PROB40 
     TEMPO 2714/2715 BKN014
       
EGPO 270620Z 03005KT 340V060 0650 R36/1500 FG VV/// 06/06 Q1025
TAF EGPO 270500Z 2706/2715 04005KT 0200 FG BKN001 
     BECMG 2706/2709 9999 NSW FEW035 
     PROB30 
     TEMPO 2709/2712 4000 BR BKN003
       
EGPU 270620Z AUTO 16007KT 9999 NCD 08/06 Q1024
TAF EGPU 270500Z 2706/2715 12005KT CAVOK
       
EGQK 270550Z AUTO 22002KT 9999 NCD M00/M01 Q1025
EGQL 270550Z 33003KT CAVOK M00/M01 Q1025 BLU
TAF EGQL 270415Z 2706/2715 VRB04KT CAVOK
       
EGQM 270550Z AUTO 33003KT 9999 NCD 03/02 Q1025
EGQS 270615Z 19001KT 9999 1100W VCFG MIFG FEW000 BKN300 00/M01 Q1025 AMB TEMPO 0700 BCFG SCT000 RED
TAF EGQS 270416Z 2706/2724 21004KT CAVOK 
     TEMPO 2706/2707 4000 BR 
     PROB30 2706/2707 0700 BCFG SCT000
       
EGSH 270620Z 07006KT 0900 R09/1100 FG OVC002 06/06 Q1024 TEMPO BKN001
TAF EGSH 270458Z 2706/2715 06007KT 0300 FG BKN001 
     BECMG 2706/2709 3000 BR BKN003 
     BECMG 2709/2712 9999 NSW FEW015
       
EGSS 270620Z AUTO 04006KT 0500 R04/1100 FG VV/// 06/06 Q1023
TAF EGSS 270500Z 2706/2812 07008KT 0300 FG OVC000 
     BECMG 2706/2708 3000 BR BKN003 
     BECMG 2708/2710 9999 NSW FEW020 
     BECMG 2721/2724 7000 
     BECMG 2800/2803 3000 BR 
     BECMG 2806/2808 8000 NSW 
     BECMG 2808/2810 9999 
     PROB30 
     TEMPO 2810/2812 7000 SHRA
       
EGTE 270620Z 03002KT CAVOK 03/01 Q1021
TAF EGTE 270525Z 2706/2715 06008KT 9999 FEW045 
     PROB30 
     TEMPO 2706/2708 8000
       
EGTK 270620Z 07009KT 0600 R19/P2000 FG OVC002 04/04 Q1023
TAF EGTK 270525Z 2706/2715 07007KT 0300 FG BKN001 
     BECMG 2706/2709 4000 BR BKN008 
     BECMG 2709/2711 9999 NSW FEW045
       
EGUB 270550Z 03005KT 2000 BR OVC003 05/05 Q1023 YLO2 TEMPO OVC002 AMB
TAF AMD EGUB 270541Z 2706/2715 06005KT 3000 BR BKN004 
     PROB30 2706/2708 2000 BKN002 
     BECMG 2708/2711 9999 NSW FEW010
       
EGUL 270559Z AUTO 05007KT 6000 BR OVC004 06/06 A3022 RMK AO2
EGUN 270558Z AUTO 06006KT 6000 BR OVC004 06/06 A3023 RMK AO2 SLP240 T00630063 10064 20052 55000 .
TAF AMD EGUN 270603Z 2706/2810 07006KT 6000 BR BKN004 QNH3020INS 
     TEMPO 2706/2708 3200 BR 
     BECMG 2709/2710 08006KT 9999 NSW SKC QNH3015INS 
     BECMG 2721/2722 11006KT 6000 BR SKC QNH3011INS 
     TEMPO 2800/2806 3200 BR 
     BECMG 2807/2808 16006KT 9999 NSW FEW035 QNH3011INS TX15/2715Z TN05/2706Z
       
EGUW 270550Z 05009KT 0500 FG OVC001 06/06 Q1023 RED
TAF EGUW 270443Z 2706/2715 05005KT 1500 BR BKN001 
     TEMPO 2706/2709 0500 FG 
     BECMG 2708/2711 CAVOK
       
EGVA 270628Z AUTO 08007KT 2800 BR OVC003 05/ A3021 RMK AO2 PNO $
EGVN 270627Z 07010KT 1200 0500S BCFG BR OVC002 05/04 Q1023 RED BECMG 5000 HZ SCT014 GRN
TAF AMD EGVN 270534Z 2706/2806 07008KT 1000 BR OVC002 
     BECMG 2706/2709 5000 HZ SCT014 
     BECMG 2709/2711 9999 NSW FEW030 
     PROB40 2802/2806 0600 FG OVC001
       
EGVO 270550Z 07006KT 3000 BR OVC004 06/05 Q1022 YLO2 BECMG 4000 BKN006 YLO1
TAF EGVO 270447Z 2706/2718 05005KT 3000 BR BKN004 
     PROB30 2706/2708 0500 FG BKN000 
     BECMG 2707/2710 5000 HZ FEW010 
     BECMG 2710/2712 9999 NSW
       
EGVP 270550Z 05010KT 3000 BR OVC003 06/05 Q1022 YLO2
TAF EGVP 270448Z 2706/2715 07008KT 3000 BR BKN004 
     BECMG 2706/2709 9999 NSW FEW020
       
EGWU 270550Z 07008KT 4000 HZ OVC006 07/05 Q1023 YLO1 TEMPO 2500 BR YLO1
TAF AMD EGWU 270605Z 2706/2724 07008KT 4000 HZ OVC006 
     PROB30 
     TEMPO 2706/2708 2000 BR 
     BECMG 2708/2711 CAVOK 
     BECMG 2722/2724 5000 HZ
       
EGXC 270550Z 04004KT 9999 OVC009 05/04 Q1025 GRN TEMPO BKN005 YLO1
EGXE 270550Z 03004KT 0500 FG BKN001 BKN007 05/04 Q1025 RED
TAF EGXE 270515Z 2706/2715 04003KT 0500 FG BKN001 
     BECMG 2708/2710 3000 BR SCT006 
     BECMG 2710/2712 9999 NSW SCT015 
     BECMG 2713/2715 SCT025
       
EGXP 270550Z AUTO 08004KT 9999 // OVC010/// 05/03 Q1024
TAF EGXP 270417Z 2706/2715 07008KT 9999 BKN007 
     BECMG 2706/2708 4000 BR OVC003 
     PROB40 2708/2711 0200 FG OVC000 
     BECMG 2711/2713 9999 NSW BKN005 
     BECMG 2713/2715 BKN008
       
EGXS 270550Z AUTO 06005KT 9999 // OVC012/// 06/03 Q1025
EGXT 270550Z AUTO 06007KT 0700 FG OVC001/// 04/04 Q1024
TAF EGXT 270527Z 2706/2715 03005KT 5000 BR OVC003 
     TEMPO 2706/2710 0500 FG OVC000 
     BECMG 2710/2712 9999 NSW SCT012 
     BECMG 2712/2714 FEW018
       
EGXU 270550Z 08001KT 9999 BKN017 05/04 Q1025 WHT TEMPO 6000 HZ BKN013 GRN
TAF EGXU 270529Z 2706/2715 VRB03KT 9999 SCT015 BKN025 
     TEMPO 2706/2711 6000 HZ SCT013 
     PROB30 
     TEMPO 2706/2708 0500 FG 
     BECMG 2713/2715 FEW018 BKN030
       
EGXV 270550Z AUTO 09003KT 9999 OVC011/// 06/05 Q1025
EGXW 270550Z 05006KT 9999 OVC009 05/03 Q1024 GRN BECMG OVC004 YLO2
TAF EGXW 270415Z 2706/2724 07008KT 9999 BKN005 
     BECMG 2706/2708 4000 BR OVC003 
     PROB40 2708/2711 0200 FG OVC000 
     BECMG 2711/2713 9999 NSW BKN005 
     BECMG 2713/2715 BKN008 
     BECMG 2717/2719 0200 FG OVC000
       
EGXZ 270550Z AUTO 31003KT 6000 BR NCD 04/03 Q1025
EGYD 270626Z 06005KT 9999 OVC006 04/03 Q1025 YLO1 TEMPO 6000 BR BKN004 YLO2
TAF EGYD 270535Z 2706/2715 05005KT 9999 BKN008 
     TEMPO 2706/2713 4000 BR BKN004 
     PROB30 2708/2711 2000 BR BKN002 
     PROB30 2713/2715 FEW008
       
EGYM 270550Z 07005KT 2500 BR OVC002 06/06 Q1024 AMB PROB30 TEMPO OVC001 RED
TAF EGYM 270334Z 2706/2715 06006KT 5000 BR OVC006 
     TEMPO 2706/2709 2000 BR BKN002 
     PROB30 
     TEMPO 2706/2709 0200 FG OVC001 
     BECMG 2710/2712 CAVOK
       
EGYP 270553Z 07010KT 0200 FG VV/// 05/05 Q//// RED
TAF EGYP 270431Z 2706/2724 06015KT 9999 BKN010 
     TEMPO 2706/2711 2000 BR BKN002 
     PROB40 
     TEMPO 2706/2710 0500 -DZ FG BKN000 
     BECMG 2710/2713 03020G30KT 520003 
     TEMPO 2712/2715 FEW015 
     TEMPO 2715/2724 6000 -RA 
     PROB40 
     TEMPO 2716/2724 3000 RADZ BKN004 
     PROB30 
     TEMPO 2716/2724 VRB07KT 560003
       
EGFF 270620Z AUTO 07010KT 9999 NCD 05/04 Q1021
TAF EGFF 270500Z 2706/2806 07013KT 9999 FEW045
       
EGLC 270620Z AUTO 05007KT 3100 HZ OVC005 08/06 Q1023
TAF EGLC 270458Z 2706/2715 07006KT 3000 BR OVC004 
     BECMG 2706/2709 7000 NSW BKN007 
     BECMG 2709/2711 9999 FEW030
       
EGAC 270620Z VRB03KT 9999 FEW011 06/05 Q1024
TAF EGAC 270557Z 2706/2715 08006KT 9999 FEW025
       
EGXC 270550Z 04004KT 9999 OVC009 05/04 Q1025 GRN TEMPO BKN005 YLO1
EGYD 270626Z 06005KT 9999 OVC006 04/03 Q1025 YLO1 TEMPO 6000 BR BKN004 YLO2
TAF EGYD 270535Z 2706/2715 05005KT 9999 BKN008 
     TEMPO 2706/2713 4000 BR BKN004 
     PROB30 2708/2711 2000 BR BKN002 
     PROB30 2713/2715 FEW008
       
EGDR 270550Z 07015G26KT 3000 BR FEW002 SCT003 BKN005 09/08 Q1018 YLO2
EGPN 270620Z 02001KT CAVOK 03/02 Q1025
TAF EGPN 270628Z 2706/2715 VRB05KT 9999 SCT030 
     TEMPO 2706/2708 8000 
     PROB40 
     TEMPO 2714/2715 BKN014
       
EGPD 270620Z AUTO VRB01KT 9999 -RA NCD 03/01 Q1025 NOSIG
TAF EGPD 270501Z 2706/2806 VRB03KT CAVOK 
     BECMG 2711/2714 15010KT 
     TEMPO 2718/2721 BKN008 
     PROB40 
     TEMPO 2718/2724 6000 
     BECMG 2721/2724 BKN008 
     TEMPO 2800/2806 3000 DZ BKN004 
     PROB30 
     TEMPO 2800/2803 1200 BR
       
EGNX 270620Z 07008KT 7000 BKN005 04/03 Q1024
TAF EGNX 270500Z 2706/2806 09009KT 9999 BKN006 
     PROB30 
     TEMPO 2706/2709 8000 
     BECMG 2709/2712 FEW030 
     BECMG 2719/2722 8000 BKN004 
     PROB30 2800/2806 0300 FG BKN001
       
EGPH 270620Z 24002KT 9999 R06/1400 MIFG NSC 00/M00 Q1025
TAF EGPH 270501Z 2706/2806 06005KT CAVOK 
     PROB40 
     TEMPO 2706/2708 4000 BR MIFG BKN003 
     TEMPO 2715/2718 BKN012 
     BECMG 2718/2721 BKN008 
     TEMPO 2718/2803 4000 BR DZ BKN003 
     TEMPO 2803/2806 SCT008
       
EGTE 270620Z 03002KT CAVOK 03/01 Q1021
TAF EGTE 270525Z 2706/2715 06008KT 9999 FEW045 
     PROB30 
     TEMPO 2706/2708 8000
       
EGVA 270628Z AUTO 08007KT 2800 BR OVC003 05/ A3021 RMK AO2 PNO $
EGLF 270620Z 06007KT 2500 HZ OVC004 06/05 Q1023
TAF EGLF 270627Z 2706/2715 07006KT 2500 BR OVC004 
     BECMG 2706/2709 9999 NSW FEW030
       
EGKK 270620Z 04007KT 2200 BR OVC004 07/06 Q1022
TAF EGKK 270456Z 2706/2812 06010KT 2000 BR FEW004 
     TEMPO 2706/2709 BKN004 
     PROB30 2706/2708 0500 FG 
     BECMG 2709/2711 CAVOK 
     BECMG 2715/2718 13005KT 
     PROB40 2721/2724 8000 
     BECMG 2800/2803 7000 
     PROB30 2803/2808 4000 HZ 
     BECMG 2808/2810 22010KT 9999 FEW015 BKN030 
     PROB30 
     TEMPO 2810/2812 7000 SHRA
       
EGPF 270620Z VRB03KT 9999 MIFG NSC 00/M00 Q1025
TAF EGPF 270449Z 2706/2806 05006KT 9999 FEW030 
     TEMPO 2706/2709 2000 BR 
     PROB30 
     TEMPO 2706/2709 BKN012 
     PROB30 
     TEMPO 2722/2724 BKN014
       
EGBJ 270620Z 11002KT 4000 BR FEW005 OVC008 06/04 Q1023
TAF EGBJ 270627Z 2706/2715 06007KT 4000 BR FEW004 BKN008 
     TEMPO 2706/2709 BKN004 
     BECMG 2709/2712 9999 NSW FEW045
       
EGNR 270620Z 17004KT 140V220 8000 NSC M00/M00 Q1025
TAF EGNR 270512Z 2706/2715 15005KT 9999 FEW045 
     PROB30 
     TEMPO 2706/2709 9000 BKN010
       
EGLL 270620Z 07007KT 3600 HZ SCT005 BKN006 07/06 Q1023 BECMG 5000
TAF EGLL 270455Z 2706/2812 06007KT 3500 BR BKN004 
     TEMPO 2706/2708 6000 NSW SCT005 
     BECMG 2708/2711 CAVOK 
     PROB30 
     TEMPO 2712/2721 8000 
     BECMG 2721/2724 7000 
     PROB40 2802/2807 4000 HZ 
     BECMG 2807/2810 22010KT 9999 FEW015 BKN030 
     PROB30 
     TEMPO 2808/2811 BKN014 
     PROB30 
     TEMPO 2810/2812 7000 SHRA
       
EGNJ 270620Z VRB02KT 9999 BKN012 07/06 Q1025
TAF EGNJ 270501Z 2706/2715 07008KT 9999 BKN012 
     TEMPO 2706/2712 BKN006 
     PROB40 
     TEMPO 2706/2715 6000 BKN004 
     BECMG 2712/2715 BKN006
       
EGPE 270620Z 24003KT CAVOK 00/M00 Q1025
TAF EGPE 270500Z 2706/2715 VRB03KT CAVOK 
     TEMPO 2706/2708 2000 BR
       
EGPI 270620Z AUTO 15004KT 9999 NCD 06/04 Q1023
TAF EGPI 270501Z 2706/2715 13008KT CAVOK
       
EGTK 270620Z 07009KT 0600 R19/P2000 FG OVC002 04/04 Q1023
TAF EGTK 270525Z 2706/2715 07007KT 0300 FG BKN001 
     BECMG 2706/2709 4000 BR BKN008 
     BECMG 2709/2711 9999 NSW FEW045
       
EGQK 270550Z AUTO 22002KT 9999 NCD M00/M01 Q1025
EGPA 270620Z 33002KT 9999 FEW008 06/05 Q1025
TAF EGPA 270625Z 2706/2715 VRB05KT 9999 FEW025 
     TEMPO 2706/2709 7000 
     BECMG 2709/2712 07010KT 
     PROB30 
     TEMPO 2714/2715 BKN010
       
EGUL 270559Z AUTO 05007KT 6000 BR OVC004 06/06 A3022 RMK AO2
EGNM 270620Z 08005KT 030V120 9999 SCT006 BKN008 05/04 Q1024
TAF EGNM 270502Z 2706/2806 10007KT 9999 BKN012 
     TEMPO 2706/2710 3000 BR BKN004 
     PROB30 
     TEMPO 2706/2709 0300 FG OVC001 
     BECMG 2710/2713 SCT020 
     PROB30 
     TEMPO 2719/2721 BKN009 
     BECMG 2721/2724 3000 BR BKN005 
     TEMPO 2723/2806 0300 FG OVC001
       
EGXE 270550Z 03004KT 0500 FG BKN001 BKN007 05/04 Q1025 RED
TAF EGXE 270515Z 2706/2715 04003KT 0500 FG BKN001 
     BECMG 2708/2710 3000 BR SCT006 
     BECMG 2710/2712 9999 NSW SCT015 
     BECMG 2713/2715 SCT025
       
EGQL 270550Z 33003KT CAVOK M00/M01 Q1025 BLU
TAF EGQL 270415Z 2706/2715 VRB04KT CAVOK
       
EGXU 270550Z 08001KT 9999 BKN017 05/04 Q1025 WHT TEMPO 6000 HZ BKN013 GRN
TAF EGXU 270529Z 2706/2715 VRB03KT 9999 SCT015 BKN025 
     TEMPO 2706/2711 6000 HZ SCT013 
     PROB30 
     TEMPO 2706/2708 0500 FG 
     BECMG 2713/2715 FEW018 BKN030
       
EGGP 270620Z 11005KT 8000 NSC 03/03 Q1024
TAF AMD EGGP 270608Z 2706/2806 09008KT 9999 FEW045 
     TEMPO 2706/2709 9000 
     BECMG 2709/2712 15010KT 
     PROB30 
     TEMPO 2803/2806 8000 BKN008
       
EGQS 270615Z 19001KT 9999 1100W VCFG MIFG FEW000 BKN300 00/M01 Q1025 AMB TEMPO 0700 BCFG SCT000 RED
TAF EGQS 270416Z 2706/2724 21004KT CAVOK 
     TEMPO 2706/2707 4000 BR 
     PROB30 2706/2707 0700 BCFG SCT000
       
EGGW 270620Z AUTO 05008KT 0350 R08/0800 FG VV/// 05/05 Q1023
TAF EGGW 270500Z 2706/2806 07008KT 0200 FG OVC000 
     BECMG 2706/2709 3000 BR BKN003 
     BECMG 2709/2711 9999 NSW FEW020 
     BECMG 2722/2724 7000 
     BECMG 2800/2803 4000 BR
       
EGMD 270620Z AUTO 36007KT 1600 BR NCD 04/04 Q1022
TAF EGMD 270458Z 2706/2715 04006KT 2000 BR FEW020 
     BECMG 2706/2709 9999 NSW 
     PROB30 
     TEMPO 2706/2708 BKN006
       
EGCC 270620Z AUTO 05004KT 9999 NCD 04/02 Q1024 NOSIG
TAF EGCC 270500Z 2706/2812 08006KT 9999 FEW045 
     PROB30 
     TEMPO 2706/2709 9000 BKN010 
     BECMG 2712/2715 14010KT 
     TEMPO 2721/2809 8000 
     PROB30 
     TEMPO 2803/2809 4000 BR BKN008 
     BECMG 2809/2812 20010KT
       
EGYM 270550Z 07005KT 2500 BR OVC002 06/06 Q1024 AMB PROB30 TEMPO OVC001 RED
TAF EGYM 270334Z 2706/2715 06006KT 5000 BR OVC006 
     TEMPO 2706/2709 2000 BR BKN002 
     PROB30 
     TEMPO 2706/2709 0200 FG OVC001 
     BECMG 2710/2712 CAVOK
       
EGUN 270558Z AUTO 06006KT 6000 BR OVC004 06/06 A3023 RMK AO2 SLP240 T00630063 10064 20052 55000 .
TAF AMD EGUN 270603Z 2706/2810 07006KT 6000 BR BKN004 QNH3020INS 
     TEMPO 2706/2708 3200 BR 
     BECMG 2709/2710 08006KT 9999 NSW SKC QNH3015INS 
     BECMG 2721/2722 11006KT 6000 BR SKC QNH3011INS 
     TEMPO 2800/2806 3200 BR 
     BECMG 2807/2808 16006KT 9999 NSW FEW035 QNH3011INS TX15/2715Z TN05/2706Z
       
EGNT 270620Z 23001KT 0150 R07/0300 FG OVC001 01/01 Q1025
TAF EGNT 270449Z 2706/2806 VRB04KT 8000 FEW010 
     TEMPO 2706/2806 3000 BR BKN006 
     PROB30 
     TEMPO 2706/2710 0300 FG BKN001 
     PROB40 
     TEMPO 2720/2806 BKN004
       
EGWU 270550Z 07008KT 4000 HZ OVC006 07/05 Q1023 YLO1 TEMPO 2500 BR YLO1
TAF AMD EGWU 270605Z 2706/2724 07008KT 4000 HZ OVC006 
     PROB30 
     TEMPO 2706/2708 2000 BR 
     BECMG 2708/2711 CAVOK 
     BECMG 2722/2724 5000 HZ
       
EGSH 270620Z 07006KT 0900 R09/1100 FG OVC002 06/06 Q1024 TEMPO BKN001
TAF EGSH 270458Z 2706/2715 06007KT 0300 FG BKN001 
     BECMG 2706/2709 3000 BR BKN003 
     BECMG 2709/2712 9999 NSW FEW015
       
EGVO 270550Z 07006KT 3000 BR OVC004 06/05 Q1022 YLO2 BECMG 4000 BKN006 YLO1
TAF EGVO 270447Z 2706/2718 05005KT 3000 BR BKN004 
     PROB30 2706/2708 0500 FG BKN000 
     BECMG 2707/2710 5000 HZ FEW010 
     BECMG 2710/2712 9999 NSW
       
EGPK 270620Z 08003KT CAVOK 04/00 Q1025
TAF EGPK 270449Z 2706/2806 VRB05KT 9999 FEW035
       
EGXP 270550Z AUTO 08004KT 9999 // OVC010/// 05/03 Q1024
TAF EGXP 270417Z 2706/2715 07008KT 9999 BKN007 
     BECMG 2706/2708 4000 BR OVC003 
     PROB40 2708/2711 0200 FG OVC000 
     BECMG 2711/2713 9999 NSW BKN005 
     BECMG 2713/2715 BKN008
       
EGPM 270620Z 28005KT 250V330 9999 SCT015 07/05 Q1025 TEMPO BKN012
TAF EGPM 270500Z 2706/2715 25006KT 9999 SCT012 
     TEMPO 2706/2715 BKN012 
     PROB40 
     TEMPO 2706/2715 2000 BR SCT002 BKN004
       
EGOS 270550Z 11007KT 6000 HZ BKN005 04/03 Q1024 YLO1
TAF EGOS 270554Z 2706/2715 10008KT 7000 HZ SCT005 
     PROB30 2706/2708 4000 BR SCT004 
     BECMG 2708/2710 9999 NSW SCT015 
     BECMG 2710/2712 FEW022
       
EGHI 270620Z 03004KT 4000 BR SCT003 05/04 Q1022
TAF EGHI 270525Z 2706/2715 04006KT 9999 FEW045 
     TEMPO 2706/2709 3000 BR BKN004
       
EGMC 270620Z 03006KT 2400 BR OVC005 07/06 Q1023
TAF EGMC 270458Z 2706/2715 05006KT 2000 BR BKN003 
     BECMG 2706/2709 9999 NSW FEW012
       
EGDX 270550Z AUTO 06010KT 9999 FEW190/// 06/03 Q1021
TAF EGDX 270439Z 2706/2715 08010KT 9999 FEW020
       
EGSS 270620Z AUTO 04006KT 0500 R04/1100 FG VV/// 06/06 Q1023
TAF EGSS 270500Z 2706/2812 07008KT 0300 FG OVC000 
     BECMG 2706/2708 3000 BR BKN003 
     BECMG 2708/2710 9999 NSW FEW020 
     BECMG 2721/2724 7000 
     BECMG 2800/2803 3000 BR 
     BECMG 2806/2808 8000 NSW 
     BECMG 2808/2810 9999 
     PROB30 
     TEMPO 2810/2812 7000 SHRA
       
EGPO 270620Z 03005KT 340V060 0650 R36/1500 FG VV/// 06/06 Q1025
TAF EGPO 270500Z 2706/2715 04005KT 0200 FG BKN001 
     BECMG 2706/2709 9999 NSW FEW035 
     PROB30 
     TEMPO 2709/2712 4000 BR BKN003
       
EGPB 270620Z VRB02KT 9999 FEW025 05/04 Q1025
TAF EGPB 270500Z 2706/2715 VRB03KT 9999 SCT008 
     TEMPO 2706/2715 BKN004 
     PROB40 
     TEMPO 2706/2712 6000
       
EGNV 270620Z 32003KT 2500 BR FEW011 BKN013 05/04 Q1025
TAF EGNV 270527Z 2706/2715 06009KT 7000 BKN013 
     TEMPO 2706/2715 3000 BR BKN006
       
EGPU 270620Z AUTO 16007KT 9999 NCD 08/06 Q1024
TAF EGPU 270500Z 2706/2715 12005KT CAVOK
       
EGXZ 270550Z AUTO 31003KT 6000 BR NCD 04/03 Q1025
EGOV 270550Z 06003KT 9999 FEW030 SCT300 04/03 Q1022 BLU
TAF EGOV 270559Z 2706/2715 VRB03KT 9999 FEW012
       
EGXW 270550Z 05006KT 9999 OVC009 05/03 Q1024 GRN BECMG OVC004 YLO2
TAF EGXW 270415Z 2706/2724 07008KT 9999 BKN005 
     BECMG 2706/2708 4000 BR OVC003 
     PROB40 2708/2711 0200 FG OVC000 
     BECMG 2711/2713 9999 NSW BKN005 
     BECMG 2713/2715 BKN008 
     BECMG 2717/2719 0200 FG OVC000
       
EGUW 270550Z 05009KT 0500 FG OVC001 06/06 Q1023 RED
TAF EGUW 270443Z 2706/2715 05005KT 1500 BR BKN001 
     TEMPO 2706/2709 0500 FG 
     BECMG 2708/2711 CAVOK
       
EGPC 270620Z 26002KT 9000 MIFG NSC 02/02 Q1025
TAF EGPC 270500Z 2706/2715 13005KT 0200 FG BKN001 
     BECMG 2706/2709 9999 NSW SCT009
       
EGXT 270550Z AUTO 06007KT 0700 FG OVC001/// 04/04 Q1024
TAF EGXT 270527Z 2706/2715 03005KT 5000 BR OVC003 
     TEMPO 2706/2710 0500 FG OVC000 
     BECMG 2710/2712 9999 NSW SCT012 
     BECMG 2712/2714 FEW018
       
EGDY 270550Z 04005KT 9000 HZ BKN190 04/03 Q1021 BLU